Spike Africa — WDF4869 — position and weather

sailwx.info

Track history (hours):
 
Tides and Currents Weather Stations Pressure Air Temp Water Temp Dewpoint Dewpoint Depression Visibility Wind Speed Wind Dir Waves Ship Positions

Spike Africa

Owner: Schooners North, Friday harbor, WA. More information available from US FCC via Universal Licensing System and Coast Guard Vessel Documentation Center.

Last reported at 2018-Apr-18 08:51 UTC. Time now 2018-Apr-20 22:09 UTC.
Position N 29°58' W 092°49'.

Length 16 m; draft 2.3 m.

Type: Sailing vessel. MMSI: 366566000.

Date/timePositionNaut miles runAvg speedWind from/ knotsBaromVisibWave heightAir tempDewpointWater temp
2018-Apr-18 08:51N 29°58' W 092°49'1 2.0
2018-Apr-18 08:24N 29°58' W 092°50'2 3.5
2018-Apr-18 07:58N 29°57' W 092°52'2 3.2
2018-Apr-18 07:23N 29°57' W 092°54'2 3.4
2018-Apr-18 06:52N 29°56' W 092°56'9 3.4
2018-Apr-18 04:06N 29°56' W 093°07'0 3.4
2018-Apr-18 03:59N 29°56' W 093°07'2 3.3
2018-Apr-18 03:30N 29°56' W 093°09'2 3.2
2018-Apr-18 03:01N 29°57' W 093°10'1 2.9
2018-Apr-18 02:30N 29°58' W 093°12'2 3.1
2018-Apr-18 02:00N 29°59' W 093°13'1 3.0
2018-Apr-18 01:31N 30°01' W 093°14'1 2.8
2018-Apr-18 01:01N 30°02' W 093°15'1 2.8
2018-Apr-18 00:30N 30°03' W 093°16'1 2.6
2018-Apr-18 00:00N 30°04' W 093°16'1 2.9
2018-Apr-17 23:30N 30°05' W 093°17'1 1.2
2018-Apr-17 23:00N 30°05' W 093°18'1 1.0
2018-Apr-17 22:30N 30°06' W 093°18'0 0.0
2018-Apr-17 22:00N 30°06' W 093°18'0 0.0
2018-Apr-17 21:31N 30°06' W 093°18'0 0.0
2018-Apr-17 21:01N 30°06' W 093°18'17603665.4
2018-Apr-17 20:32N 48°36' W 122°45'010.7
2018-Apr-17 20:31N 48°36' W 122°45'176064662.7
2018-Apr-17 20:29N 30°06' W 093°18'0 1.0
2018-Apr-17 20:00N 30°06' W 093°19'1756632269.0
2018-Apr-17 20:00N 48°37' W 122°38'17563532.0
2018-Apr-17 19:30N 30°06' W 093°19'1755203793.3
2018-Apr-17 19:30N 48°40' W 122°34'4 8.0
2018-Apr-17 19:01N 48°43' W 122°32'1756632072.6
2018-Apr-17 19:00N 30°06' W 093°19'0 0.1
2018-Apr-17 18:31N 30°06' W 093°19'17568306.7
2018-Apr-17 18:18N 48°45' W 122°30'17566031.8
2018-Apr-17 18:00N 30°06' W 093°19'17566654.0
2018-Apr-17 17:45N 48°45' W 122°30'17567437.6
2018-Apr-17 17:30N 30°05' W 093°20'175686611.1
2018-Apr-17 17:29N 48°45' W 122°31'17573640.6
2018-Apr-17 17:00N 30°04' W 093°21'1 1.5
2018-Apr-17 16:31N 30°04' W 093°22'0 0.0
2018-Apr-17 16:00N 30°04' W 093°22'0 0.1
2018-Apr-17 15:30N 30°04' W 093°22'0 0.0
2018-Apr-17 15:00N 30°04' W 093°22'0 0.0
2018-Apr-17 14:31N 30°04' W 093°22'0 0.0
2018-Apr-17 14:00N 30°04' W 093°22'0 0.1
2018-Apr-17 13:30N 30°04' W 093°22'1 3.0
2018-Apr-17 13:00N 30°04' W 093°24'2 4.9
2018-Apr-17 12:30N 30°04' W 093°27'3 5.0
2018-Apr-17 11:59N 30°04' W 093°30'2 5.2
2018-Apr-17 11:30N 30°04' W 093°32'3 5.3
2018-Apr-17 11:00N 30°04' W 093°35'3 5.4
2018-Apr-17 10:30N 30°04' W 093°39'3 5.5
2018-Apr-17 10:00N 30°04' W 093°42'2 4.6
2018-Apr-17 09:30N 30°03' W 093°44'2 4.4
2018-Apr-17 09:01N 30°01' W 093°46'2 4.6
2018-Apr-17 08:30N 29°59' W 093°48'2 4.8
2018-Apr-17 08:00N 29°58' W 093°50'3 5.4
2018-Apr-17 07:30N 29°56' W 093°52'3 6.8
2018-Apr-17 07:00N 29°54' W 093°55'3 6.4
2018-Apr-17 06:30N 29°51' W 093°57'3 5.4
2018-Apr-17 06:00N 29°49' W 093°59'2 5.0
2018-Apr-17 05:31N 29°47' W 094°01'3 5.5
2018-Apr-17 05:00N 29°46' W 094°03'3 5.5
2018-Apr-17 04:30N 29°44' W 094°06'3 5.5
2018-Apr-17 04:01N 29°42' W 094°08'3 5.3
2018-Apr-17 03:30N 29°41' W 094°11'3 5.5
2018-Apr-17 03:00N 29°40' W 094°14'3 5.3
2018-Apr-17 02:29N 29°39' W 094°17'3 5.1
2018-Apr-17 01:54N 29°37' W 094°20'4 4.8
2018-Apr-17 01:09N 29°36' W 094°24'17411751.7
2018-Apr-17 00:09N 48°45' W 122°30'0 2.6
2018-Apr-17 00:00N 48°45' W 122°31'0 0.6
2018-Apr-16 23:31N 48°45' W 122°31'1 1.2
2018-Apr-16 23:00N 48°45' W 122°30'1733403.1
2018-Apr-16 18:42N 29°27' W 094°51'1 6.5
2018-Apr-16 18:30N 29°28' W 094°51'3 6.3
2018-Apr-16 18:00N 29°31' W 094°53'3 6.5
2018-Apr-16 17:30N 29°33' W 094°55'3 6.4
2018-Apr-16 17:01N 29°36' W 094°57'4 6.7
2018-Apr-16 16:29N 29°39' W 094°58'3 6.4
2018-Apr-16 16:00N 29°42' W 095°00'3 5.3
2018-Apr-16 15:30N 29°44' W 095°02'4 1.6
2018-Apr-16 13:08N 29°47' W 095°04'1 4.2
2018-Apr-16 13:00N 29°47' W 095°04'1 0.2
2018-Apr-16 09:25N 29°48' W 095°04'0 0.4
2018-Apr-16 08:03N 29°47' W 095°04'0 4.0
2018-Apr-16 08:00N 29°47' W 095°04'3 3.7
2018-Apr-16 07:12N 29°44' W 095°03'1 5.6
2018-Apr-16 06:58N 29°44' W 095°02'2 4.7
2018-Apr-16 06:30N 29°42' W 095°00'3 5.3
2018-Apr-16 05:58N 29°40' W 094°58'3 6.1
2018-Apr-16 05:30N 29°37' W 094°57'3 6.3
2018-Apr-16 05:00N 29°34' W 094°56'3 6.2
2018-Apr-16 04:30N 29°32' W 094°54'3 6.2
2018-Apr-16 04:00N 29°29' W 094°52'32 3.7
2018-Apr-15 19:22N 29°39' W 094°16'2 4.7
2018-Apr-15 18:57N 29°40' W 094°14'2 4.7
2018-Apr-15 18:30N 29°41' W 094°12'2 4.5
2018-Apr-15 18:01N 29°41' W 094°10'2 3.4
2018-Apr-15 17:30N 29°42' W 094°08'2 3.8
2018-Apr-15 17:00N 29°44' W 094°06'2 4.3
2018-Apr-15 16:30N 29°45' W 094°04'2 4.1
2018-Apr-15 16:00N 29°46' W 094°02'2 4.1
2018-Apr-15 15:31N 29°48' W 094°01'2 4.1
2018-Apr-15 15:01N 29°49' W 093°59'2 4.3
2018-Apr-15 14:31N 29°50' W 093°57'4 7.0
2018-Apr-15 14:00N 29°53' W 093°55'3 6.7
2018-Apr-15 13:30N 29°56' W 093°52'3 5.4
2018-Apr-15 13:00N 29°58' W 093°51'0 0.2
2018-Apr-15 12:27N 29°58' W 093°51'2 5.1
2018-Apr-15 12:00N 29°59' W 093°48'3 5.7
2018-Apr-15 11:30N 30°01' W 093°46'0 0.1
2018-Apr-15 11:00N 30°01' W 093°46'2 4.4
2018-Apr-15 10:30N 30°03' W 093°44'3 5.6
2018-Apr-15 09:58N 30°04' W 093°41'3 5.3
2018-Apr-15 09:26N 30°04' W 093°38'2 4.7
2018-Apr-15 08:59N 30°04' W 093°35'2 4.4
2018-Apr-15 08:30N 30°04' W 093°33'2 4.4
2018-Apr-15 08:00N 30°04' W 093°30'2 4.4
2018-Apr-15 07:31N 30°04' W 093°28'2 4.4
2018-Apr-15 07:00N 30°04' W 093°25'2 4.3
2018-Apr-15 06:30N 30°04' W 093°23'1 2.9
2018-Apr-15 06:00N 30°04' W 093°21'1 2.9
2018-Apr-15 05:31N 30°05' W 093°20'2 3.5
2018-Apr-15 05:00N 30°06' W 093°18'1 1.3
2018-Apr-15 04:31N 30°05' W 093°17'2 3.5
2018-Apr-15 04:01N 30°04' W 093°16'0 0.1
2018-Apr-15 03:31N 30°04' W 093°16'0 0.1
2018-Apr-15 03:00N 30°04' W 093°16'2 3.7
2018-Apr-15 02:30N 30°02' W 093°15'2 4.5
2018-Apr-15 02:01N 30°00' W 093°14'2 4.9
2018-Apr-15 01:31N 29°58' W 093°12'3 5.0
2018-Apr-15 01:00N 29°57' W 093°10'176937.0
2018-Apr-13 01:15N 48°45' W 122°30'0 0.0
2018-Apr-13 01:00N 48°45' W 122°30'0 0.0
2018-Apr-13 00:30N 48°45' W 122°30'0 0.0
2018-Apr-13 00:00N 48°45' W 122°30'0 0.0
2018-Apr-12 23:30N 48°45' W 122°30'0 0.0
2018-Apr-12 23:00N 48°45' W 122°30'0 0.0
2018-Apr-12 22:30N 48°45' W 122°30'0 0.0
2018-Apr-12 22:00N 48°45' W 122°30'0 0.0
2018-Apr-12 19:18N 48°45' W 122°30'0 0.0
2018-Apr-12 19:00N 48°45' W 122°30'0 0.0
2018-Apr-12 18:30N 48°45' W 122°30'  
2018-Apr-09 22:50N 29°56' W 093°07'2 4.6
2018-Apr-09 22:29N 29°56' W 093°09'2 4.4
2018-Apr-09 22:00N 29°58' W 093°11'2 4.9
2018-Apr-09 21:30N 29°59' W 093°13'2 4.4
2018-Apr-09 21:01N 30°01' W 093°14'2 4.4
2018-Apr-09 20:30N 30°03' W 093°16'2 4.6
2018-Apr-09 20:00N 30°05' W 093°17'1 1.6
2018-Apr-09 19:30N 30°05' W 093°18'1 2.4
2018-Apr-09 19:01N 30°06' W 093°19'0 0.1
2018-Apr-09 18:30N 30°06' W 093°19'0 0.1
2018-Apr-09 18:01N 30°06' W 093°19'0 0.0
2018-Apr-09 17:29N 30°06' W 093°19'0 0.0
2018-Apr-09 17:01N 30°06' W 093°19'0 0.7
2018-Apr-09 16:30N 30°06' W 093°19'1 2.0
2018-Apr-09 16:01N 30°05' W 093°20'0 0.1
2018-Apr-09 15:29N 30°05' W 093°20'0 0.1
2018-Apr-09 15:00N 30°05' W 093°20'2 3.7
2018-Apr-09 14:30N 30°04' W 093°21'2 4.6
2018-Apr-09 14:01N 30°04' W 093°24'3 6.7
2018-Apr-09 13:30N 30°04' W 093°28'7 6.8
2018-Apr-09 12:26N 30°04' W 093°36'4 6.8
2018-Apr-09 11:55N 30°03' W 093°40'3 6.4
2018-Apr-09 11:31N 30°03' W 093°43'2 4.9
2018-Apr-09 11:01N 30°01' W 093°45'2 4.9
2018-Apr-09 10:31N 29°60' W 093°47'3 5.6
2018-Apr-09 10:00N 29°59' W 093°50'1 1.9
2018-Apr-09 09:30N 29°58' W 093°51'0 0.0
2018-Apr-09 09:00N 29°58' W 093°51'0 0.0
2018-Apr-09 08:31N 29°58' W 093°51'1 2.2
2018-Apr-09 08:01N 29°59' W 093°52'4 7.7
2018-Apr-09 07:31N 29°60' W 093°57'3 5.8
2018-Apr-09 07:00N 30°01' W 093°60'3 5.5
2018-Apr-09 06:31N 30°03' W 094°02'3 5.8
2018-Apr-09 06:00N 30°05' W 094°04'0 0.2
2018-Apr-09 05:30N 30°05' W 094°04'0 0.1
2018-Apr-09 05:00N 30°05' W 094°04'0 0.0
2018-Apr-09 04:31N 30°05' W 094°04'0 0.0
2018-Apr-09 03:59N 30°05' W 094°04'0 0.0
2018-Apr-09 03:31N 30°05' W 094°04'0 0.0
2018-Apr-09 03:00N 30°05' W 094°04'0 0.0
2018-Apr-09 02:28N 30°05' W 094°04'0 0.0
2018-Apr-09 02:00N 30°05' W 094°04'3 5.9
2018-Apr-09 01:30N 30°03' W 094°02'3 5.7
2018-Apr-09 01:00N 30°01' W 093°59'3 6.3
2018-Apr-09 00:28N 29°59' W 093°56'3 7.1
2018-Apr-09 00:01N 29°59' W 093°52'1 2.2
2018-Apr-08 23:30N 29°58' W 093°51'0 0.2
2018-Apr-08 23:00N 29°58' W 093°51'0 0.2
2018-Apr-08 22:29N 29°58' W 093°51'1 2.4
2018-Apr-08 22:00N 29°59' W 093°49'3 5.4
2018-Apr-08 21:30N 29°60' W 093°47'3 6.2
2018-Apr-08 21:00N 30°02' W 093°44'8 5.0
2018-Apr-08 19:19N 30°04' W 093°35'2 4.5
2018-Apr-08 18:55N 30°04' W 093°33'2 4.5
2018-Apr-08 18:29N 30°04' W 093°30'2 4.4
2018-Apr-08 18:00N 30°04' W 093°28'2 4.5
2018-Apr-08 17:30N 30°04' W 093°25'2 4.2
2018-Apr-08 17:00N 30°04' W 093°23'2 3.4
2018-Apr-08 16:30N 30°04' W 093°21'1 3.0
2018-Apr-08 16:01N 30°05' W 093°20'2 3.3
2018-Apr-08 15:30N 30°06' W 093°18'1 2.9
2018-Apr-08 15:01N 30°05' W 093°17'2 4.2
2018-Apr-08 14:30N 30°03' W 093°16'2 4.4
2018-Apr-08 14:00N 30°01' W 093°14'2 4.4
2018-Apr-08 13:30N 29°59' W 093°13'2 4.9
2018-Apr-08 13:00N 29°58' W 093°11'  
Track history (hours):
 
Tides and Currents Weather Stations Pressure Air Temp Water Temp Dewpoint Dewpoint Depression Visibility Wind Speed Wind Dir Waves Ship Positions

Spike Africa

Owner: Schooners North, Friday harbor, WA. More information available from US FCC via Universal Licensing System and Coast Guard Vessel Documentation Center.

Last reported at 2018-Apr-18 08:51 UTC. Time now 2018-Apr-20 22:09 UTC.
Position N 29°58' W 092°49'.

Length 16 m; draft 2.3 m.

Type: Sailing vessel. MMSI: 366566000.

Date/timePositionNaut miles runAvg speedWind from/ knotsBaromVisibWave heightAir tempDewpointWater temp
2018-Apr-18 08:51N 29°58' W 092°49'1 2.0
2018-Apr-18 08:24N 29°58' W 092°50'2 3.5
2018-Apr-18 07:58N 29°57' W 092°52'2 3.2
2018-Apr-18 07:23N 29°57' W 092°54'2 3.4
2018-Apr-18 06:52N 29°56' W 092°56'9 3.4
2018-Apr-18 04:06N 29°56' W 093°07'0 3.4
2018-Apr-18 03:59N 29°56' W 093°07'2 3.3
2018-Apr-18 03:30N 29°56' W 093°09'2 3.2
2018-Apr-18 03:01N 29°57' W 093°10'1 2.9
2018-Apr-18 02:30N 29°58' W 093°12'2 3.1
2018-Apr-18 02:00N 29°59' W 093°13'1 3.0
2018-Apr-18 01:31N 30°01' W 093°14'1 2.8
2018-Apr-18 01:01N 30°02' W 093°15'1 2.8
2018-Apr-18 00:30N 30°03' W 093°16'1 2.6
2018-Apr-18 00:00N 30°04' W 093°16'1 2.9
2018-Apr-17 23:30N 30°05' W 093°17'1 1.2
2018-Apr-17 23:00N 30°05' W 093°18'1 1.0
2018-Apr-17 22:30N 30°06' W 093°18'0 0.0
2018-Apr-17 22:00N 30°06' W 093°18'0 0.0
2018-Apr-17 21:31N 30°06' W 093°18'0 0.0
2018-Apr-17 21:01N 30°06' W 093°18'17603665.4
2018-Apr-17 20:32N 48°36' W 122°45'010.7
2018-Apr-17 20:31N 48°36' W 122°45'176064662.7
2018-Apr-17 20:29N 30°06' W 093°18'0 1.0
2018-Apr-17 20:00N 30°06' W 093°19'1756632269.0
2018-Apr-17 20:00N 48°37' W 122°38'17563532.0
2018-Apr-17 19:30N 30°06' W 093°19'1755203793.3
2018-Apr-17 19:30N 48°40' W 122°34'4 8.0
2018-Apr-17 19:01N 48°43' W 122°32'1756632072.6
2018-Apr-17 19:00N 30°06' W 093°19'0 0.1
2018-Apr-17 18:31N 30°06' W 093°19'17568306.7
2018-Apr-17 18:18N 48°45' W 122°30'17566031.8
2018-Apr-17 18:00N 30°06' W 093°19'17566654.0
2018-Apr-17 17:45N 48°45' W 122°30'17567437.6
2018-Apr-17 17:30N 30°05' W 093°20'175686611.1
2018-Apr-17 17:29N 48°45' W 122°31'17573640.6
2018-Apr-17 17:00N 30°04' W 093°21'1 1.5
2018-Apr-17 16:31N 30°04' W 093°22'0 0.0
2018-Apr-17 16:00N 30°04' W 093°22'0 0.1
2018-Apr-17 15:30N 30°04' W 093°22'0 0.0
2018-Apr-17 15:00N 30°04' W 093°22'0 0.0
2018-Apr-17 14:31N 30°04' W 093°22'0 0.0
2018-Apr-17 14:00N 30°04' W 093°22'0 0.1
2018-Apr-17 13:30N 30°04' W 093°22'1 3.0
2018-Apr-17 13:00N 30°04' W 093°24'2 4.9
2018-Apr-17 12:30N 30°04' W 093°27'3 5.0
2018-Apr-17 11:59N 30°04' W 093°30'2 5.2
2018-Apr-17 11:30N 30°04' W 093°32'3 5.3
2018-Apr-17 11:00N 30°04' W 093°35'3 5.4
2018-Apr-17 10:30N 30°04' W 093°39'3 5.5
2018-Apr-17 10:00N 30°04' W 093°42'2 4.6
2018-Apr-17 09:30N 30°03' W 093°44'2 4.4
2018-Apr-17 09:01N 30°01' W 093°46'2 4.6
2018-Apr-17 08:30N 29°59' W 093°48'2 4.8
2018-Apr-17 08:00N 29°58' W 093°50'3 5.4
2018-Apr-17 07:30N 29°56' W 093°52'3 6.8
2018-Apr-17 07:00N 29°54' W 093°55'3 6.4
2018-Apr-17 06:30N 29°51' W 093°57'3 5.4
2018-Apr-17 06:00N 29°49' W 093°59'2 5.0
2018-Apr-17 05:31N 29°47' W 094°01'3 5.5
2018-Apr-17 05:00N 29°46' W 094°03'3 5.5
2018-Apr-17 04:30N 29°44' W 094°06'3 5.5
2018-Apr-17 04:01N 29°42' W 094°08'3 5.3
2018-Apr-17 03:30N 29°41' W 094°11'3 5.5
2018-Apr-17 03:00N 29°40' W 094°14'3 5.3
2018-Apr-17 02:29N 29°39' W 094°17'3 5.1
2018-Apr-17 01:54N 29°37' W 094°20'4 4.8
2018-Apr-17 01:09N 29°36' W 094°24'17411751.7
2018-Apr-17 00:09N 48°45' W 122°30'0 2.6
2018-Apr-17 00:00N 48°45' W 122°31'0 0.6
2018-Apr-16 23:31N 48°45' W 122°31'1 1.2
2018-Apr-16 23:00N 48°45' W 122°30'1733403.1
2018-Apr-16 18:42N 29°27' W 094°51'1 6.5
2018-Apr-16 18:30N 29°28' W 094°51'3 6.3
2018-Apr-16 18:00N 29°31' W 094°53'3 6.5
2018-Apr-16 17:30N 29°33' W 094°55'3 6.4
2018-Apr-16 17:01N 29°36' W 094°57'4 6.7
2018-Apr-16 16:29N 29°39' W 094°58'3 6.4
2018-Apr-16 16:00N 29°42' W 095°00'3 5.3
2018-Apr-16 15:30N 29°44' W 095°02'4 1.6
2018-Apr-16 13:08N 29°47' W 095°04'1 4.2
2018-Apr-16 13:00N 29°47' W 095°04'1 0.2
2018-Apr-16 09:25N 29°48' W 095°04'0 0.4
2018-Apr-16 08:03N 29°47' W 095°04'0 4.0
2018-Apr-16 08:00N 29°47' W 095°04'3 3.7
2018-Apr-16 07:12N 29°44' W 095°03'1 5.6
2018-Apr-16 06:58N 29°44' W 095°02'2 4.7
2018-Apr-16 06:30N 29°42' W 095°00'3 5.3
2018-Apr-16 05:58N 29°40' W 094°58'3 6.1
2018-Apr-16 05:30N 29°37' W 094°57'3 6.3
2018-Apr-16 05:00N 29°34' W 094°56'3 6.2
2018-Apr-16 04:30N 29°32' W 094°54'3 6.2
2018-Apr-16 04:00N 29°29' W 094°52'32 3.7
2018-Apr-15 19:22N 29°39' W 094°16'2 4.7
2018-Apr-15 18:57N 29°40' W 094°14'2 4.7
2018-Apr-15 18:30N 29°41' W 094°12'2 4.5
2018-Apr-15 18:01N 29°41' W 094°10'2 3.4
2018-Apr-15 17:30N 29°42' W 094°08'2 3.8
2018-Apr-15 17:00N 29°44' W 094°06'2 4.3
2018-Apr-15 16:30N 29°45' W 094°04'2 4.1
2018-Apr-15 16:00N 29°46' W 094°02'2 4.1
2018-Apr-15 15:31N 29°48' W 094°01'2 4.1
2018-Apr-15 15:01N 29°49' W 093°59'2 4.3
2018-Apr-15 14:31N 29°50' W 093°57'4 7.0
2018-Apr-15 14:00N 29°53' W 093°55'3 6.7
2018-Apr-15 13:30N 29°56' W 093°52'3 5.4
2018-Apr-15 13:00N 29°58' W 093°51'0 0.2
2018-Apr-15 12:27N 29°58' W 093°51'2 5.1
2018-Apr-15 12:00N 29°59' W 093°48'3 5.7
2018-Apr-15 11:30N 30°01' W 093°46'0 0.1
2018-Apr-15 11:00N 30°01' W 093°46'2 4.4
2018-Apr-15 10:30N 30°03' W 093°44'3 5.6
2018-Apr-15 09:58N 30°04' W 093°41'3 5.3
2018-Apr-15 09:26N 30°04' W 093°38'2 4.7
2018-Apr-15 08:59N 30°04' W 093°35'2 4.4
2018-Apr-15 08:30N 30°04' W 093°33'2 4.4
2018-Apr-15 08:00N 30°04' W 093°30'2 4.4
2018-Apr-15 07:31N 30°04' W 093°28'2 4.4
2018-Apr-15 07:00N 30°04' W 093°25'2 4.3
2018-Apr-15 06:30N 30°04' W 093°23'1 2.9
2018-Apr-15 06:00N 30°04' W 093°21'1 2.9
2018-Apr-15 05:31N 30°05' W 093°20'2 3.5
2018-Apr-15 05:00N 30°06' W 093°18'1 1.3
2018-Apr-15 04:31N 30°05' W 093°17'2 3.5
2018-Apr-15 04:01N 30°04' W 093°16'0 0.1
2018-Apr-15 03:31N 30°04' W 093°16'0 0.1
2018-Apr-15 03:00N 30°04' W 093°16'2 3.7
2018-Apr-15 02:30N 30°02' W 093°15'2 4.5
2018-Apr-15 02:01N 30°00' W 093°14'2 4.9
2018-Apr-15 01:31N 29°58' W 093°12'3 5.0
2018-Apr-15 01:00N 29°57' W 093°10'176937.0
2018-Apr-13 01:15N 48°45' W 122°30'0 0.0
2018-Apr-13 01:00N 48°45' W 122°30'0 0.0
2018-Apr-13 00:30N 48°45' W 122°30'0 0.0
2018-Apr-13 00:00N 48°45' W 122°30'0 0.0
2018-Apr-12 23:30N 48°45' W 122°30'0 0.0
2018-Apr-12 23:00N 48°45' W 122°30'0 0.0
2018-Apr-12 22:30N 48°45' W 122°30'0 0.0
2018-Apr-12 22:00N 48°45' W 122°30'0 0.0
2018-Apr-12 19:18N 48°45' W 122°30'0 0.0
2018-Apr-12 19:00N 48°45' W 122°30'0 0.0
2018-Apr-12 18:30N 48°45' W 122°30'  
2018-Apr-09 22:50N 29°56' W 093°07'2 4.6
2018-Apr-09 22:29N 29°56' W 093°09'2 4.4
2018-Apr-09 22:00N 29°58' W 093°11'2 4.9
2018-Apr-09 21:30N 29°59' W 093°13'2 4.4
2018-Apr-09 21:01N 30°01' W 093°14'2 4.4
2018-Apr-09 20:30N 30°03' W 093°16'2 4.6
2018-Apr-09 20:00N 30°05' W 093°17'1 1.6
2018-Apr-09 19:30N 30°05' W 093°18'1 2.4
2018-Apr-09 19:01N 30°06' W 093°19'0 0.1
2018-Apr-09 18:30N 30°06' W 093°19'0 0.1
2018-Apr-09 18:01N 30°06' W 093°19'0 0.0
2018-Apr-09 17:29N 30°06' W 093°19'0 0.0
2018-Apr-09 17:01N 30°06' W 093°19'0 0.7
2018-Apr-09 16:30N 30°06' W 093°19'1 2.0
2018-Apr-09 16:01N 30°05' W 093°20'0 0.1
2018-Apr-09 15:29N 30°05' W 093°20'0 0.1
2018-Apr-09 15:00N 30°05' W 093°20'2 3.7
2018-Apr-09 14:30N 30°04' W 093°21'2 4.6
2018-Apr-09 14:01N 30°04' W 093°24'3 6.7
2018-Apr-09 13:30N 30°04' W 093°28'7 6.8
2018-Apr-09 12:26N 30°04' W 093°36'4 6.8
2018-Apr-09 11:55N 30°03' W 093°40'3 6.4
2018-Apr-09 11:31N 30°03' W 093°43'2 4.9
2018-Apr-09 11:01N 30°01' W 093°45'2 4.9
2018-Apr-09 10:31N 29°60' W 093°47'3 5.6
2018-Apr-09 10:00N 29°59' W 093°50'1 1.9
2018-Apr-09 09:30N 29°58' W 093°51'0 0.0
2018-Apr-09 09:00N 29°58' W 093°51'0 0.0
2018-Apr-09 08:31N 29°58' W 093°51'1 2.2
2018-Apr-09 08:01N 29°59' W 093°52'4 7.7
2018-Apr-09 07:31N 29°60' W 093°57'3 5.8
2018-Apr-09 07:00N 30°01' W 093°60'3 5.5
2018-Apr-09 06:31N 30°03' W 094°02'3 5.8
2018-Apr-09 06:00N 30°05' W 094°04'0 0.2
2018-Apr-09 05:30N 30°05' W 094°04'0 0.1
2018-Apr-09 05:00N 30°05' W 094°04'0 0.0
2018-Apr-09 04:31N 30°05' W 094°04'0 0.0
2018-Apr-09 03:59N 30°05' W 094°04'0 0.0
2018-Apr-09 03:31N 30°05' W 094°04'0 0.0
2018-Apr-09 03:00N 30°05' W 094°04'0 0.0
2018-Apr-09 02:28N 30°05' W 094°04'0 0.0
2018-Apr-09 02:00N 30°05' W 094°04'3 5.9
2018-Apr-09 01:30N 30°03' W 094°02'3 5.7
2018-Apr-09 01:00N 30°01' W 093°59'3 6.3
2018-Apr-09 00:28N 29°59' W 093°56'3 7.1
2018-Apr-09 00:01N 29°59' W 093°52'1 2.2
2018-Apr-08 23:30N 29°58' W 093°51'0 0.2
2018-Apr-08 23:00N 29°58' W 093°51'0 0.2
2018-Apr-08 22:29N 29°58' W 093°51'1 2.4
2018-Apr-08 22:00N 29°59' W 093°49'3 5.4
2018-Apr-08 21:30N 29°60' W 093°47'3 6.2
2018-Apr-08 21:00N 30°02' W 093°44'8 5.0
2018-Apr-08 19:19N 30°04' W 093°35'2 4.5
2018-Apr-08 18:55N 30°04' W 093°33'2 4.5
2018-Apr-08 18:29N 30°04' W 093°30'2 4.4
2018-Apr-08 18:00N 30°04' W 093°28'2 4.5
2018-Apr-08 17:30N 30°04' W 093°25'2 4.2
2018-Apr-08 17:00N 30°04' W 093°23'2 3.4
2018-Apr-08 16:30N 30°04' W 093°21'1 3.0
2018-Apr-08 16:01N 30°05' W 093°20'2 3.3
2018-Apr-08 15:30N 30°06' W 093°18'1 2.9
2018-Apr-08 15:01N 30°05' W 093°17'2 4.2
2018-Apr-08 14:30N 30°03' W 093°16'2 4.4
2018-Apr-08 14:00N 30°01' W 093°14'2 4.4
2018-Apr-08 13:30N 29°59' W 093°13'2 4.9
2018-Apr-08 13:00N 29°58' W 093°11'  

Dump ship's entire track history